createdAt,value
2022-11-15T00:02:08.540Z,1.90
2022-11-15T00:04:54.067Z,1.90
2022-11-15T00:07:55.049Z,1.90
2022-11-15T00:10:41.241Z,2.00
2022-11-15T00:13:26.372Z,1.90
2022-11-15T00:16:11.623Z,1.70
2022-11-15T00:18:58.372Z,1.70
2022-11-15T00:21:43.523Z,1.70
2022-11-15T00:24:28.496Z,1.60
2022-11-15T00:27:13.608Z,1.60
2022-11-15T00:29:58.790Z,1.60
2022-11-15T00:32:43.912Z,1.60
2022-11-15T00:35:29.288Z,1.60
2022-11-15T00:38:14.603Z,1.50
2022-11-15T00:40:59.589Z,1.50
2022-11-15T00:43:44.879Z,1.50
2022-11-15T00:46:30.398Z,1.40
2022-11-15T00:49:15.640Z,1.40
2022-11-15T00:52:00.690Z,1.50
2022-11-15T00:54:45.697Z,1.50
2022-11-15T00:57:30.805Z,1.60
2022-11-15T01:00:15.998Z,1.50
2022-11-15T01:03:01.784Z,1.50
2022-11-15T01:05:46.804Z,1.50
2022-11-15T01:08:32.039Z,1.40
2022-11-15T01:11:17.145Z,1.40
2022-11-15T01:14:02.226Z,1.40
2022-11-15T01:16:47.325Z,1.30
2022-11-15T01:19:32.322Z,1.30
2022-11-15T01:22:17.672Z,1.30
2022-11-15T01:25:03.217Z,1.40
2022-11-15T01:27:48.513Z,1.40
2022-11-15T01:30:33.471Z,1.30
2022-11-15T01:33:18.460Z,1.20
2022-11-15T01:36:07.660Z,1.20
2022-11-15T01:38:56.742Z,1.20
2022-11-15T01:41:41.839Z,1.20
2022-11-15T01:44:39.893Z,1.20
2022-11-15T01:47:41.716Z,1.20
2022-11-15T01:50:30.141Z,1.20
2022-11-15T01:53:17.002Z,1.10
2022-11-15T01:56:04.984Z,1.10
2022-11-15T01:58:52.444Z,1.10
2022-11-15T02:01:38.260Z,1.00
2022-11-15T02:04:33.401Z,1.10
2022-11-15T02:07:19.601Z,1.10
2022-11-15T02:10:07.816Z,1.10
2022-11-15T02:12:54.804Z,1.10
2022-11-15T02:15:44.473Z,1.10
2022-11-15T02:18:33.537Z,1.00
2022-11-15T02:21:27.734Z,1.00
2022-11-15T02:24:31.702Z,1.00
2022-11-15T02:27:35.179Z,1.00
2022-11-15T02:30:38.971Z,1.00
2022-11-15T02:33:29.544Z,1.00
2022-11-15T02:36:35.307Z,1.00
2022-11-15T02:39:29.812Z,1.10
2022-11-15T02:42:36.773Z,1.00
2022-11-15T02:45:30.571Z,1.00
2022-11-15T02:48:16.572Z,0.90
2022-11-15T02:51:02.019Z,0.90
2022-11-15T02:53:47.053Z,0.80
2022-11-15T02:56:32.331Z,0.70
2022-11-15T02:59:39.240Z,0.60
2022-11-15T03:02:33.413Z,0.70
2022-11-15T03:05:31.218Z,0.70
2022-11-15T03:08:23.266Z,0.70
2022-11-15T03:11:10.251Z,0.80
2022-11-15T03:13:59.845Z,0.80
2022-11-15T03:16:50.053Z,0.80
2022-11-15T03:19:48.404Z,0.80
2022-11-15T03:22:41.723Z,0.80
2022-11-15T03:25:27.863Z,0.80
2022-11-15T03:28:15.283Z,0.80
2022-11-15T03:31:02.401Z,0.80
2022-11-15T03:33:47.803Z,0.70
2022-11-15T03:36:34.706Z,0.70
2022-11-15T03:39:20.937Z,0.70
2022-11-15T03:42:23.924Z,0.70
2022-11-15T03:45:14.711Z,0.60
2022-11-15T03:48:02.579Z,0.60
2022-11-15T03:50:48.197Z,0.60
2022-11-15T03:53:33.690Z,0.60
2022-11-15T03:56:19.491Z,0.70
2022-11-15T03:59:04.539Z,0.70
2022-11-15T04:01:49.614Z,0.60
2022-11-15T04:04:34.706Z,0.60
2022-11-15T04:07:19.853Z,0.60
2022-11-15T04:10:06.160Z,0.60
2022-11-15T04:12:51.441Z,0.50
2022-11-15T04:15:36.905Z,0.50
2022-11-15T04:18:21.937Z,0.50
2022-11-15T04:21:26.780Z,0.50
2022-11-15T04:24:15.138Z,0.50
2022-11-15T04:27:00.402Z,0.50
2022-11-15T04:29:45.672Z,0.50
2022-11-15T04:32:30.823Z,0.50
2022-11-15T04:35:15.879Z,0.50
2022-11-15T04:38:01.786Z,0.50
2022-11-15T04:40:47.457Z,0.40
2022-11-15T04:43:32.808Z,0.20
2022-11-15T04:46:18.254Z,0.30
2022-11-15T04:49:03.655Z,0.30
2022-11-15T04:51:48.944Z,0.30
2022-11-15T04:54:34.302Z,0.30
2022-11-15T04:57:19.368Z,0.30
2022-11-15T05:00:08.862Z,0.30
2022-11-15T05:03:12.912Z,0.30
2022-11-15T05:05:59.168Z,0.30
2022-11-15T05:08:44.488Z,0.30
2022-11-15T05:11:29.502Z,0.30
2022-11-15T05:14:14.858Z,0.30
2022-11-15T05:17:00.069Z,0.40
2022-11-15T05:19:45.647Z,0.40
2022-11-15T05:22:30.719Z,0.40
2022-11-15T05:25:15.849Z,0.40
2022-11-15T05:28:01.092Z,0.30
2022-11-15T05:30:46.079Z,0.20
2022-11-15T05:33:32.076Z,0.20
2022-11-15T05:36:18.026Z,0.20
2022-11-15T05:39:04.365Z,0.20
2022-11-15T05:41:55.176Z,0.20
2022-11-15T05:44:41.834Z,0.30
2022-11-15T05:47:28.782Z,0.30
2022-11-15T05:50:14.860Z,0.30
2022-11-15T05:53:04.870Z,0.30
2022-11-15T05:55:50.620Z,0.30
2022-11-15T05:58:36.672Z,0.20
2022-11-15T06:01:22.602Z,0.00
2022-11-15T06:04:07.638Z,-0.10
2022-11-15T06:06:53.020Z,-0.20
2022-11-15T06:09:37.962Z,-0.10
2022-11-15T06:12:23.008Z,0.00
2022-11-15T06:15:08.290Z,0.10
2022-11-15T06:17:58.238Z,0.20
2022-11-15T06:20:43.311Z,0.20
2022-11-15T06:23:31.464Z,0.20
2022-11-15T06:26:16.746Z,0.10
2022-11-15T06:29:03.153Z,0.00
2022-11-15T06:31:48.092Z,0.10
2022-11-15T06:34:33.468Z,0.20
2022-11-15T06:37:18.617Z,0.10
2022-11-15T06:40:04.036Z,0.00
2022-11-15T06:42:49.070Z,0.10
2022-11-15T06:45:34.322Z,0.10
2022-11-15T06:48:19.702Z,0.20
2022-11-15T06:51:05.146Z,0.30
2022-11-15T06:53:51.275Z,0.30
2022-11-15T06:56:36.367Z,0.30
2022-11-15T06:59:21.476Z,0.40
2022-11-15T07:02:06.541Z,0.40
2022-11-15T07:04:51.578Z,0.50
2022-11-15T07:07:36.949Z,0.50
2022-11-15T07:10:25.050Z,0.50
2022-11-15T07:13:11.180Z,0.50
2022-11-15T07:15:56.427Z,0.60
2022-11-15T07:18:41.732Z,0.70
2022-11-15T07:21:27.803Z,0.70
2022-11-15T07:24:12.904Z,0.80
2022-11-15T07:26:57.923Z,0.90
2022-11-15T07:29:43.557Z,1.00
2022-11-15T07:32:28.780Z,1.10
2022-11-15T07:35:13.708Z,1.20
2022-11-15T07:37:59.882Z,1.30
2022-11-15T07:40:45.155Z,1.40
2022-11-15T07:43:30.906Z,1.50
2022-11-15T07:46:16.455Z,1.60
2022-11-15T07:49:01.643Z,1.70
2022-11-15T07:51:46.747Z,1.80
2022-11-15T07:54:31.683Z,2.00
2022-11-15T07:57:16.700Z,2.10
2022-11-15T08:00:01.732Z,2.20
2022-11-15T08:02:47.120Z,2.40
2022-11-15T08:05:32.697Z,2.50
2022-11-15T08:08:18.332Z,2.60
2022-11-15T08:11:03.715Z,2.70
2022-11-15T08:13:48.635Z,2.80
2022-11-15T08:16:33.978Z,2.90
2022-11-15T08:19:19.253Z,3.10
2022-11-15T08:22:04.301Z,3.30
2022-11-15T08:24:49.454Z,3.40
2022-11-15T08:27:34.637Z,3.60
2022-11-15T08:30:20.324Z,3.70
2022-11-15T08:33:05.586Z,3.90
2022-11-15T08:35:50.791Z,4.10
2022-11-15T08:38:35.919Z,4.20
2022-11-15T08:41:39.945Z,4.40
2022-11-15T08:44:25.601Z,4.50
2022-11-15T08:47:12.033Z,4.70
2022-11-15T08:49:57.096Z,4.90
2022-11-15T08:52:42.252Z,5.00
2022-11-15T08:55:27.150Z,5.20
2022-11-15T08:58:12.201Z,5.40
2022-11-15T09:00:57.177Z,5.50
2022-11-15T09:03:42.437Z,5.70
2022-11-15T09:06:28.183Z,5.90
2022-11-15T09:09:13.323Z,6.10
2022-11-15T09:12:02.474Z,6.30
2022-11-15T09:14:47.975Z,6.50
2022-11-15T09:17:33.290Z,6.70
2022-11-15T09:20:18.320Z,6.90
2022-11-15T09:23:04.139Z,7.00
2022-11-15T09:25:49.462Z,7.10
2022-11-15T09:28:35.444Z,7.30
2022-11-15T09:31:22.450Z,7.40
2022-11-15T09:34:07.919Z,7.50
2022-11-15T09:36:52.988Z,7.70
2022-11-15T09:39:38.158Z,7.90
2022-11-15T09:42:29.387Z,8.20
2022-11-15T09:45:23.625Z,8.30
2022-11-15T09:48:29.357Z,8.40
2022-11-15T09:51:19.840Z,8.60
2022-11-15T09:56:35.957Z,8.90
2022-11-15T09:59:02.560Z,9.00
2022-11-15T10:01:40.146Z,9.20
2022-11-15T10:04:10.761Z,9.30
2022-11-15T10:06:41.755Z,9.40
2022-11-15T10:09:13.346Z,9.60
2022-11-15T10:11:40.915Z,9.60
2022-11-15T10:14:13.536Z,9.70
2022-11-15T10:16:55.322Z,9.70
2022-11-15T10:19:25.120Z,9.80
2022-11-15T10:22:00.574Z,9.90
2022-11-15T10:24:32.082Z,9.80
2022-11-15T10:26:58.811Z,9.80
2022-11-15T10:29:27.072Z,9.90
2022-11-15T10:31:54.234Z,10.00
2022-11-15T10:34:22.755Z,10.10
2022-11-15T10:36:57.075Z,10.20
2022-11-15T10:39:23.987Z,10.40
2022-11-15T10:41:50.898Z,10.50
2022-11-15T10:44:17.479Z,10.60
2022-11-15T10:46:48.076Z,10.70
2022-11-15T10:49:16.410Z,10.80
2022-11-15T10:51:46.106Z,10.90
2022-11-15T10:54:18.425Z,10.80
2022-11-15T10:56:50.004Z,10.80
2022-11-15T10:59:19.986Z,11.00
2022-11-15T11:01:47.731Z,11.00
2022-11-15T11:04:14.424Z,11.10
2022-11-15T11:06:54.603Z,11.10
2022-11-15T11:09:35.188Z,11.20
2022-11-15T11:12:02.214Z,11.20
2022-11-15T11:14:31.940Z,11.30
2022-11-15T11:17:17.410Z,11.40
2022-11-15T11:19:56.337Z,11.50
2022-11-15T11:22:58.550Z,11.60
2022-11-15T11:25:31.160Z,11.70
2022-11-15T11:28:10.407Z,11.90
2022-11-15T11:30:43.226Z,11.90
2022-11-15T11:33:16.431Z,12.10
2022-11-15T11:36:01.866Z,12.10
2022-11-15T11:38:35.812Z,12.10
2022-11-15T11:41:08.387Z,12.10
2022-11-15T11:43:39.932Z,12.10
2022-11-15T11:46:24.900Z,12.20
2022-11-15T11:48:54.934Z,12.30
2022-11-15T11:51:24.593Z,12.40
2022-11-15T11:53:51.176Z,12.40
2022-11-15T11:56:32.751Z,12.50
2022-11-15T11:59:11.472Z,12.60
2022-11-15T12:01:43.240Z,12.60
2022-11-15T12:04:22.098Z,12.70
2022-11-15T12:06:54.384Z,12.80
2022-11-15T12:09:40.609Z,12.90
2022-11-15T12:12:14.647Z,13.00
2022-11-15T12:14:44.231Z,12.90
2022-11-15T12:17:11.791Z,12.90
2022-11-15T12:19:38.864Z,13.00
2022-11-15T12:22:15.009Z,12.90
2022-11-15T12:24:43.958Z,12.90
2022-11-15T12:27:28.116Z,12.80
2022-11-15T12:29:59.212Z,12.90
2022-11-15T12:32:26.065Z,12.80
2022-11-15T12:34:53.158Z,12.60
2022-11-15T12:37:38.698Z,12.40
2022-11-15T12:40:05.319Z,12.30
2022-11-15T12:42:31.955Z,12.10
2022-11-15T12:45:00.072Z,12.00
2022-11-15T12:47:27.522Z,11.90
2022-11-15T12:49:54.610Z,11.90
2022-11-15T12:52:21.339Z,11.70
2022-11-15T12:54:52.403Z,11.70
2022-11-15T12:57:24.844Z,11.70
2022-11-15T13:00:05.130Z,11.60
2022-11-15T13:02:31.729Z,11.40
2022-11-15T13:05:16.884Z,11.30
2022-11-15T13:07:43.736Z,11.20
2022-11-15T13:10:13.518Z,11.10
2022-11-15T13:12:46.272Z,11.10
2022-11-15T13:15:12.874Z,11.10
2022-11-15T13:17:41.255Z,11.30
2022-11-15T13:20:07.861Z,11.40
2022-11-15T13:22:52.898Z,11.40
2022-11-15T13:25:38.494Z,11.70
2022-11-15T13:28:17.470Z,11.50
2022-11-15T13:30:51.699Z,11.60
2022-11-15T13:33:22.891Z,11.70
2022-11-15T13:35:57.183Z,11.90
2022-11-15T13:38:38.345Z,12.00
2022-11-15T13:41:15.007Z,11.80
2022-11-15T13:43:41.676Z,11.40
2022-11-15T13:46:13.321Z,11.70
2022-11-15T13:48:40.890Z,12.50
2022-11-15T13:51:10.626Z,12.70
2022-11-15T13:53:39.534Z,12.30
2022-11-15T13:56:06.301Z,11.80
2022-11-15T13:58:34.162Z,11.50
2022-11-15T14:01:02.233Z,11.30
2022-11-15T14:03:30.572Z,11.10
2022-11-15T14:06:03.469Z,10.90
2022-11-15T14:08:30.507Z,10.80
2022-11-15T14:11:07.720Z,10.70
2022-11-15T14:13:34.542Z,10.60
2022-11-15T14:16:20.963Z,10.70
2022-11-15T14:18:51.800Z,10.80
2022-11-15T14:21:19.324Z,10.70
2022-11-15T14:23:45.970Z,10.70
2022-11-15T14:26:27.469Z,10.70
2022-11-15T14:28:54.086Z,10.70
2022-11-15T14:31:21.338Z,10.50
2022-11-15T14:33:47.947Z,10.50
2022-11-15T14:36:19.358Z,11.00
2022-11-15T14:38:46.327Z,11.40
2022-11-15T14:41:19.055Z,11.40
2022-11-15T14:43:45.671Z,11.10
2022-11-15T14:46:12.379Z,10.80
2022-11-15T14:48:38.986Z,10.60
2022-11-15T14:51:10.837Z,10.50
2022-11-15T14:53:37.427Z,10.40
2022-11-15T14:56:04.095Z,10.40
2022-11-15T14:58:31.047Z,10.30
2022-11-15T15:00:57.915Z,10.20
2022-11-15T15:03:24.551Z,10.20
2022-11-15T15:05:51.200Z,10.20
2022-11-15T15:08:17.953Z,10.10
2022-11-15T15:10:45.571Z,10.00
2022-11-15T15:13:20.325Z,10.00
2022-11-15T15:15:47.459Z,10.00
2022-11-15T15:18:14.188Z,9.90
2022-11-15T15:20:42.028Z,9.90
2022-11-15T15:23:16.717Z,9.80
2022-11-15T15:25:44.581Z,9.80
2022-11-15T15:28:11.188Z,9.70
2022-11-15T15:30:37.828Z,9.70
2022-11-15T15:33:04.438Z,9.60
2022-11-15T15:35:33.059Z,9.60
2022-11-15T15:37:59.816Z,9.50
2022-11-15T15:40:28.456Z,9.50
2022-11-15T15:42:55.046Z,9.40
2022-11-15T15:45:21.664Z,9.40
2022-11-15T15:47:50.242Z,9.40
2022-11-15T15:50:26.058Z,9.40
2022-11-15T15:52:53.471Z,9.30
2022-11-15T15:55:20.171Z,9.30
2022-11-15T15:57:47.063Z,9.20
2022-11-15T16:00:13.836Z,9.10
2022-11-15T16:02:41.007Z,9.10
2022-11-15T16:05:08.404Z,9.00
2022-11-15T16:07:35.056Z,9.00
2022-11-15T16:10:01.940Z,8.90
2022-11-15T16:12:32.565Z,8.80
2022-11-15T16:14:59.442Z,8.80
2022-11-15T16:17:32.845Z,8.70
2022-11-15T16:20:00.899Z,8.70
2022-11-15T16:22:29.508Z,8.60
2022-11-15T16:24:56.380Z,8.60
2022-11-15T16:27:23.047Z,8.50
2022-11-15T16:29:49.726Z,8.50
2022-11-15T16:32:16.745Z,8.40
2022-11-15T16:34:48.458Z,8.40
2022-11-15T16:37:22.443Z,8.40
2022-11-15T16:39:49.377Z,8.40
2022-11-15T16:42:16.145Z,8.40
2022-11-15T16:44:42.796Z,8.30
2022-11-15T16:47:22.797Z,8.30
2022-11-15T16:49:49.583Z,8.30
2022-11-15T16:52:21.195Z,8.30
2022-11-15T16:54:48.439Z,8.30
2022-11-15T16:57:16.625Z,8.20
2022-11-15T16:59:43.259Z,8.10
2022-11-15T17:02:13.184Z,8.00
2022-11-15T17:04:39.888Z,7.90
2022-11-15T17:07:06.854Z,8.00
2022-11-15T17:09:34.302Z,8.00
2022-11-15T17:12:00.943Z,8.00
2022-11-15T17:14:27.587Z,8.00
2022-11-15T17:16:57.122Z,8.00
2022-11-15T17:19:23.752Z,8.00
2022-11-15T17:21:50.442Z,8.00
2022-11-15T17:24:17.266Z,7.90
2022-11-15T17:26:44.224Z,7.90
2022-11-15T17:29:10.848Z,7.80
2022-11-15T17:31:37.977Z,7.70
2022-11-15T17:34:05.391Z,7.70
2022-11-15T17:36:32.119Z,7.70
2022-11-15T17:38:59.940Z,7.70
2022-11-15T17:41:27.413Z,7.70
2022-11-15T17:43:55.496Z,7.70
2022-11-15T17:46:22.162Z,7.60
2022-11-15T17:48:48.958Z,7.60
2022-11-15T17:51:16.860Z,7.60
2022-11-15T17:53:45.011Z,7.60
2022-11-15T17:56:15.696Z,7.60
2022-11-15T17:58:42.673Z,7.60
2022-11-15T18:01:19.559Z,7.60
2022-11-15T18:03:46.644Z,7.60
2022-11-15T18:06:13.815Z,7.60
2022-11-15T18:08:42.009Z,7.60
2022-11-15T18:11:08.650Z,7.50
2022-11-15T18:13:36.167Z,7.40
2022-11-15T18:16:04.478Z,7.50
2022-11-15T18:18:32.321Z,7.50
2022-11-15T18:21:10.740Z,7.50
2022-11-15T18:23:37.816Z,7.40
2022-11-15T18:26:05.211Z,7.50
2022-11-15T18:28:33.873Z,7.40
2022-11-15T18:31:01.224Z,7.40
2022-11-15T18:33:28.581Z,7.40
2022-11-15T18:35:59.564Z,7.40
2022-11-15T18:38:30.510Z,7.40
2022-11-15T18:41:07.777Z,7.30
2022-11-15T18:43:34.600Z,7.30
2022-11-15T18:46:11.923Z,7.20
2022-11-15T18:48:39.705Z,7.30
2022-11-15T18:51:07.209Z,7.20
2022-11-15T18:53:34.569Z,7.20
2022-11-15T18:56:05.093Z,7.20
2022-11-15T18:58:32.202Z,7.10
2022-11-15T19:01:06.419Z,7.10
2022-11-15T19:03:34.635Z,7.20
2022-11-15T19:06:09.360Z,7.10
2022-11-15T19:08:39.389Z,7.10
2022-11-15T19:11:12.140Z,7.10
2022-11-15T19:13:39.286Z,7.10
2022-11-15T19:16:06.373Z,7.10
2022-11-15T19:18:33.291Z,7.10
2022-11-15T19:21:02.916Z,7.00
2022-11-15T19:23:32.932Z,7.00
2022-11-15T19:26:00.931Z,7.10
2022-11-15T19:28:28.212Z,7.10
2022-11-15T19:31:02.336Z,7.10
2022-11-15T19:33:29.019Z,7.10
2022-11-15T19:36:02.332Z,7.10
2022-11-15T19:38:32.683Z,7.10
2022-11-15T19:41:00.342Z,7.00
2022-11-15T19:43:27.485Z,6.90
2022-11-15T19:45:58.099Z,6.80
2022-11-15T19:48:29.852Z,6.80
2022-11-15T19:50:59.670Z,6.70
2022-11-15T19:53:29.145Z,6.70
2022-11-15T19:56:05.184Z,6.70
2022-11-15T19:58:33.800Z,6.70
2022-11-15T20:01:02.131Z,6.70
2022-11-15T20:03:29.461Z,6.70
2022-11-15T20:06:09.973Z,6.70
2022-11-15T20:08:36.947Z,6.80
2022-11-15T20:11:04.497Z,6.80
2022-11-15T20:13:31.367Z,6.90
2022-11-15T20:15:58.399Z,6.80
2022-11-15T20:18:25.992Z,6.80
2022-11-15T20:20:52.903Z,6.80
2022-11-15T20:23:19.494Z,6.70
2022-11-15T20:25:46.748Z,6.70
2022-11-15T20:28:20.811Z,6.60
2022-11-15T20:30:47.781Z,6.60
2022-11-15T20:33:14.771Z,6.60
2022-11-15T20:35:41.446Z,6.60
2022-11-15T20:38:08.127Z,6.60
2022-11-15T20:40:34.877Z,6.60
2022-11-15T20:43:01.895Z,6.60
2022-11-15T20:45:28.533Z,6.60
2022-11-15T20:47:56.029Z,6.70
2022-11-15T20:50:41.584Z,6.60
2022-11-15T20:53:10.234Z,6.60
2022-11-15T20:55:47.971Z,6.60
2022-11-15T20:58:15.353Z,6.60
2022-11-15T21:00:43.160Z,6.60
2022-11-15T21:03:10.255Z,6.60
2022-11-15T21:05:41.289Z,6.60
2022-11-15T21:08:08.007Z,6.50
2022-11-15T21:10:53.463Z,6.40
2022-11-15T21:13:20.105Z,6.40
2022-11-15T21:15:47.121Z,6.40
2022-11-15T21:18:14.008Z,6.40
2022-11-15T21:20:41.320Z,6.40
2022-11-15T21:23:08.441Z,6.40
2022-11-15T21:25:35.231Z,6.50
2022-11-15T21:28:01.873Z,6.40
2022-11-15T21:30:28.490Z,6.30
2022-11-15T21:32:55.095Z,6.30
2022-11-15T21:35:22.568Z,6.20
2022-11-15T21:37:54.999Z,6.30
2022-11-15T21:40:23.381Z,6.30
2022-11-15T21:42:50.067Z,6.20
2022-11-15T21:45:16.735Z,6.10
2022-11-15T21:47:46.084Z,6.10
2022-11-15T21:50:13.322Z,6.10
2022-11-15T21:52:40.597Z,6.00
2022-11-15T21:55:07.913Z,6.00
2022-11-15T21:57:34.560Z,6.10
2022-11-15T22:00:20.024Z,6.10
2022-11-15T22:02:46.615Z,6.10
2022-11-15T22:05:13.380Z,6.10
2022-11-15T22:07:40.018Z,6.10
2022-11-15T22:10:06.835Z,6.10
2022-11-15T22:12:33.536Z,6.10
2022-11-15T22:15:00.170Z,6.10
2022-11-15T22:17:46.800Z,6.20
2022-11-15T22:20:37.760Z,6.10
2022-11-15T22:23:00.528Z,6.10
2022-11-15T22:25:27.169Z,6.10
2022-11-15T22:27:53.904Z,6.10
2022-11-15T22:30:20.984Z,6.10
2022-11-15T22:32:47.803Z,6.10
2022-11-15T22:35:14.525Z,6.20
2022-11-15T22:37:41.529Z,6.10
2022-11-15T22:40:11.091Z,6.20
2022-11-15T22:42:38.048Z,6.20
2022-11-15T22:45:04.881Z,6.20
2022-11-15T22:47:31.599Z,6.20
2022-11-15T22:49:58.635Z,6.30
2022-11-15T22:52:25.266Z,6.30
2022-11-15T22:54:51.901Z,6.30
2022-11-15T22:57:18.705Z,6.30
2022-11-15T22:59:45.830Z,6.30
2022-11-15T23:02:12.518Z,6.30
2022-11-15T23:04:39.364Z,6.10
2022-11-15T23:07:06.230Z,6.00
2022-11-15T23:09:32.939Z,5.90
2022-11-15T23:12:18.381Z,5.90
2022-11-15T23:14:45.036Z,5.90
2022-11-15T23:17:11.673Z,5.90
2022-11-15T23:19:38.296Z,6.00
2022-11-15T23:22:23.747Z,6.00
2022-11-15T23:24:52.515Z,6.00
2022-11-15T23:27:20.608Z,6.00
2022-11-15T23:30:05.794Z,6.00
2022-11-15T23:32:51.438Z,6.00
2022-11-15T23:35:18.095Z,6.00
2022-11-15T23:37:44.720Z,6.10
2022-11-15T23:40:11.834Z,6.10
2022-11-15T23:42:38.524Z,6.10
2022-11-15T23:45:05.559Z,6.20
2022-11-15T23:47:32.170Z,6.20
2022-11-15T23:49:58.825Z,6.20
2022-11-15T23:52:25.586Z,6.20
2022-11-15T23:54:52.272Z,6.20
2022-11-15T23:57:18.908Z,6.30
2022-11-15T23:59:45.541Z,6.20
